MiSS Christi — WBM6513 — position and weather

sailwx.info

Track history (hours):
 
Tides and Currents Weather Stations Pressure Air Temp Water Temp Dewpoint Dewpoint Depression Visibility Wind Speed Wind Dir Waves Ship Positions

MiSS Christi

Owner: MISS CHRISTI INC, WEST HILLS, CA. More information available from US FCC via Universal Licensing System and Coast Guard Vessel Documentation Center.

Last reported at 2017-Jun-29 14:57 UTC. Time now 2017-Jun-29 16:13 UTC.
Position N 33°43' W 118°15'.

Length 15 m; draft 1.5 m.

Type: Passenger vessel. MMSI: 367311590.

Date/timePositionNaut miles runAvg speedWind from/ knotsBaromVisibWave heightAir tempDewpointWater temp
2017-Jun-29 14:57N 33°43' W 118°15'1 1.3
2017-Jun-29 13:55N 33°44' W 118°16'0 0.0
2017-Jun-28 23:49N 33°44' W 118°16'612.6
2017-Jun-28 23:23N 33°39' W 118°18'719.3
2017-Jun-28 22:59N 33°33' W 118°24'5 0.7
2017-Jun-28 15:49N 33°29' W 118°28'615.7
2017-Jun-28 15:25N 33°34' W 118°23'715.7
2017-Jun-28 15:00N 33°39' W 118°18'5 5.2
2017-Jun-28 13:58N 33°44' W 118°16'0 0.0
2017-Jun-28 00:09N 33°44' W 118°16'1 3.9
2017-Jun-28 00:00N 33°44' W 118°16'815.7
2017-Jun-27 23:30N 33°37' W 118°20'918.3
2017-Jun-27 23:00N 33°30' W 118°27'3 4.9
2017-Jun-27 22:20N 33°27' W 118°29'0 0.0
2017-Jun-27 21:55N 33°27' W 118°29'0 0.0
2017-Jun-27 21:30N 33°27' W 118°29'0 0.0
2017-Jun-27 21:00N 33°27' W 118°29'0 0.0
2017-Jun-27 20:29N 33°27' W 118°29'0 0.0
2017-Jun-27 20:00N 33°27' W 118°29'0 0.0
2017-Jun-27 19:22N 33°27' W 118°29'0 0.0
2017-Jun-27 19:00N 33°27' W 118°29'0 0.0
2017-Jun-27 18:30N 33°27' W 118°29'0 0.0
2017-Jun-27 18:00N 33°27' W 118°29'0 0.0
2017-Jun-27 17:30N 33°27' W 118°29'0 0.3
2017-Jun-27 16:03N 33°27' W 118°29'117.5
2017-Jun-27 16:00N 33°28' W 118°28'917.2
2017-Jun-27 15:31N 33°34' W 118°22'917.4
2017-Jun-27 15:00N 33°42' W 118°16'3 0.2
2017-Jun-26 23:52N 33°44' W 118°16'410.1
2017-Jun-26 23:31N 33°40' W 118°17'1018.2
2017-Jun-26 22:58N 33°33' W 118°24'713.9
2017-Jun-26 22:26N 33°27' W 118°29'0 0.0
2017-Jun-26 21:59N 33°27' W 118°29'0 0.0
2017-Jun-26 21:30N 33°27' W 118°29'0 0.0
2017-Jun-26 20:40N 33°27' W 118°29'0 0.0
2017-Jun-26 20:30N 33°27' W 118°29'0 0.0
2017-Jun-26 19:47N 33°27' W 118°29'0 0.0
2017-Jun-26 19:29N 33°27' W 118°29'0 0.0
2017-Jun-26 18:59N 33°27' W 118°29'0 0.0
2017-Jun-26 18:30N 33°27' W 118°29'0 0.0
2017-Jun-26 18:00N 33°27' W 118°29'0 0.0
2017-Jun-26 17:30N 33°27' W 118°29'0 0.0
2017-Jun-26 16:59N 33°27' W 118°29'0 0.0
2017-Jun-26 16:28N 33°27' W 118°29'0 0.0
2017-Jun-26 16:00N 33°27' W 118°29'714.5
2017-Jun-26 15:30N 33°32' W 118°24'917.0
2017-Jun-26 14:59N 33°39' W 118°18'510.2
2017-Jun-26 14:30N 33°44' W 118°16'  
2017-Jun-23 21:10N 33°44' W 118°16'0 0.3
2017-Jun-23 21:00N 33°44' W 118°16'5 8.5
2017-Jun-23 20:25N 33°39' W 118°17'16 4.5
2017-Jun-23 16:51N 33°27' W 118°29'0 0.0
2017-Jun-23 16:29N 33°27' W 118°29'1216.2
2017-Jun-23 15:44N 33°37' W 118°21'418.3
2017-Jun-23 15:30N 33°40' W 118°18'4 8.7
2017-Jun-23 15:00N 33°44' W 118°16'0 0.1
2017-Jun-23 14:25N 33°44' W 118°16'0 0.0
2017-Jun-22 23:47N 33°44' W 118°16'310.3
2017-Jun-22 23:29N 33°41' W 118°16'919.3
2017-Jun-22 23:01N 33°34' W 118°24'915.4
2017-Jun-22 22:26N 33°27' W 118°29'0 0.0
2017-Jun-22 16:22N 33°27' W 118°29'0 0.1
2017-Jun-22 15:58N 33°27' W 118°29'815.8
2017-Jun-22 15:28N 33°33' W 118°24'1216.9
2017-Jun-22 14:46N 33°43' W 118°15'2 0.1
2017-Jun-22 00:01N 33°44' W 118°16'0 0.0
2017-Jun-22 00:00N 33°44' W 118°16'611.7
2017-Jun-21 23:29N 33°38' W 118°19'816.9
2017-Jun-21 23:00N 33°32' W 118°25'6 0.9
2017-Jun-21 16:03N 33°27' W 118°29'0 0.0
2017-Jun-21 15:58N 33°27' W 118°29'1515.4
2017-Jun-21 15:00N 33°38' W 118°18'6 0.4
2017-Jun-21 00:30N 33°44' W 118°16'1 1.6
2017-Jun-21 00:00N 33°43' W 118°16'714.0
2017-Jun-20 23:30N 33°37' W 118°20'815.8
2017-Jun-20 23:00N 33°31' W 118°25'5 7.6
2017-Jun-20 22:19N 33°27' W 118°29'0 0.0
2017-Jun-20 16:41N 33°27' W 118°29'0 0.0
2017-Jun-20 16:23N 33°27' W 118°29'812.7
2017-Jun-20 15:46N 33°33' W 118°24'415.0
2017-Jun-20 15:30N 33°37' W 118°22'714.5
2017-Jun-20 15:00N 33°42' W 118°16'2 2.0
2017-Jun-20 14:00N 33°44' W 118°16'0 0.0
2017-Jun-19 23:50N 33°44' W 118°16'3 9.7
2017-Jun-19 23:30N 33°41' W 118°16'918.8
2017-Jun-19 23:00N 33°33' W 118°23'914.7
2017-Jun-19 22:25N 33°27' W 118°29'0 0.0
2017-Jun-19 21:51N 33°27' W 118°29'0 0.0
2017-Jun-19 21:24N 33°27' W 118°29'0 0.0
2017-Jun-19 21:00N 33°27' W 118°29'0 0.0
2017-Jun-19 20:30N 33°27' W 118°29'0 0.0
2017-Jun-19 19:57N 33°27' W 118°29'0 0.0
2017-Jun-19 19:30N 33°27' W 118°29'0 0.0
2017-Jun-19 18:57N 33°27' W 118°29'0 0.0
2017-Jun-19 17:42N 33°27' W 118°29'0 0.0
2017-Jun-19 17:30N 33°27' W 118°29'0 0.0
2017-Jun-19 16:26N 33°27' W 118°29'2 4.0
2017-Jun-19 16:00N 33°28' W 118°28'1115.9
2017-Jun-19 15:20N 33°36' W 118°20'515.0
2017-Jun-19 15:00N 33°41' W 118°17'  
Track history (hours):
 
Tides and Currents Weather Stations Pressure Air Temp Water Temp Dewpoint Dewpoint Depression Visibility Wind Speed Wind Dir Waves Ship Positions

MiSS Christi

Owner: MISS CHRISTI INC, WEST HILLS, CA. More information available from US FCC via Universal Licensing System and Coast Guard Vessel Documentation Center.

Last reported at 2017-Jun-29 14:57 UTC. Time now 2017-Jun-29 16:13 UTC.
Position N 33°43' W 118°15'.

Length 15 m; draft 1.5 m.

Type: Passenger vessel. MMSI: 367311590.

Date/timePositionNaut miles runAvg speedWind from/ knotsBaromVisibWave heightAir tempDewpointWater temp
2017-Jun-29 14:57N 33°43' W 118°15'1 1.3
2017-Jun-29 13:55N 33°44' W 118°16'0 0.0
2017-Jun-28 23:49N 33°44' W 118°16'612.6
2017-Jun-28 23:23N 33°39' W 118°18'719.3
2017-Jun-28 22:59N 33°33' W 118°24'5 0.7
2017-Jun-28 15:49N 33°29' W 118°28'615.7
2017-Jun-28 15:25N 33°34' W 118°23'715.7
2017-Jun-28 15:00N 33°39' W 118°18'5 5.2
2017-Jun-28 13:58N 33°44' W 118°16'0 0.0
2017-Jun-28 00:09N 33°44' W 118°16'1 3.9
2017-Jun-28 00:00N 33°44' W 118°16'815.7
2017-Jun-27 23:30N 33°37' W 118°20'918.3
2017-Jun-27 23:00N 33°30' W 118°27'3 4.9
2017-Jun-27 22:20N 33°27' W 118°29'0 0.0
2017-Jun-27 21:55N 33°27' W 118°29'0 0.0
2017-Jun-27 21:30N 33°27' W 118°29'0 0.0
2017-Jun-27 21:00N 33°27' W 118°29'0 0.0
2017-Jun-27 20:29N 33°27' W 118°29'0 0.0
2017-Jun-27 20:00N 33°27' W 118°29'0 0.0
2017-Jun-27 19:22N 33°27' W 118°29'0 0.0
2017-Jun-27 19:00N 33°27' W 118°29'0 0.0
2017-Jun-27 18:30N 33°27' W 118°29'0 0.0
2017-Jun-27 18:00N 33°27' W 118°29'0 0.0
2017-Jun-27 17:30N 33°27' W 118°29'0 0.3
2017-Jun-27 16:03N 33°27' W 118°29'117.5
2017-Jun-27 16:00N 33°28' W 118°28'917.2
2017-Jun-27 15:31N 33°34' W 118°22'917.4
2017-Jun-27 15:00N 33°42' W 118°16'3 0.2
2017-Jun-26 23:52N 33°44' W 118°16'410.1
2017-Jun-26 23:31N 33°40' W 118°17'1018.2
2017-Jun-26 22:58N 33°33' W 118°24'713.9
2017-Jun-26 22:26N 33°27' W 118°29'0 0.0
2017-Jun-26 21:59N 33°27' W 118°29'0 0.0
2017-Jun-26 21:30N 33°27' W 118°29'0 0.0
2017-Jun-26 20:40N 33°27' W 118°29'0 0.0
2017-Jun-26 20:30N 33°27' W 118°29'0 0.0
2017-Jun-26 19:47N 33°27' W 118°29'0 0.0
2017-Jun-26 19:29N 33°27' W 118°29'0 0.0
2017-Jun-26 18:59N 33°27' W 118°29'0 0.0
2017-Jun-26 18:30N 33°27' W 118°29'0 0.0
2017-Jun-26 18:00N 33°27' W 118°29'0 0.0
2017-Jun-26 17:30N 33°27' W 118°29'0 0.0
2017-Jun-26 16:59N 33°27' W 118°29'0 0.0
2017-Jun-26 16:28N 33°27' W 118°29'0 0.0
2017-Jun-26 16:00N 33°27' W 118°29'714.5
2017-Jun-26 15:30N 33°32' W 118°24'917.0
2017-Jun-26 14:59N 33°39' W 118°18'510.2
2017-Jun-26 14:30N 33°44' W 118°16'  
2017-Jun-23 21:10N 33°44' W 118°16'0 0.3
2017-Jun-23 21:00N 33°44' W 118°16'5 8.5
2017-Jun-23 20:25N 33°39' W 118°17'16 4.5
2017-Jun-23 16:51N 33°27' W 118°29'0 0.0
2017-Jun-23 16:29N 33°27' W 118°29'1216.2
2017-Jun-23 15:44N 33°37' W 118°21'418.3
2017-Jun-23 15:30N 33°40' W 118°18'4 8.7
2017-Jun-23 15:00N 33°44' W 118°16'0 0.1
2017-Jun-23 14:25N 33°44' W 118°16'0 0.0
2017-Jun-22 23:47N 33°44' W 118°16'310.3
2017-Jun-22 23:29N 33°41' W 118°16'919.3
2017-Jun-22 23:01N 33°34' W 118°24'915.4
2017-Jun-22 22:26N 33°27' W 118°29'0 0.0
2017-Jun-22 16:22N 33°27' W 118°29'0 0.1
2017-Jun-22 15:58N 33°27' W 118°29'815.8
2017-Jun-22 15:28N 33°33' W 118°24'1216.9
2017-Jun-22 14:46N 33°43' W 118°15'2 0.1
2017-Jun-22 00:01N 33°44' W 118°16'0 0.0
2017-Jun-22 00:00N 33°44' W 118°16'611.7
2017-Jun-21 23:29N 33°38' W 118°19'816.9
2017-Jun-21 23:00N 33°32' W 118°25'6 0.9
2017-Jun-21 16:03N 33°27' W 118°29'0 0.0
2017-Jun-21 15:58N 33°27' W 118°29'1515.4
2017-Jun-21 15:00N 33°38' W 118°18'6 0.4
2017-Jun-21 00:30N 33°44' W 118°16'1 1.6
2017-Jun-21 00:00N 33°43' W 118°16'714.0
2017-Jun-20 23:30N 33°37' W 118°20'815.8
2017-Jun-20 23:00N 33°31' W 118°25'5 7.6
2017-Jun-20 22:19N 33°27' W 118°29'0 0.0
2017-Jun-20 16:41N 33°27' W 118°29'0 0.0
2017-Jun-20 16:23N 33°27' W 118°29'812.7
2017-Jun-20 15:46N 33°33' W 118°24'415.0
2017-Jun-20 15:30N 33°37' W 118°22'714.5
2017-Jun-20 15:00N 33°42' W 118°16'2 2.0
2017-Jun-20 14:00N 33°44' W 118°16'0 0.0
2017-Jun-19 23:50N 33°44' W 118°16'3 9.7
2017-Jun-19 23:30N 33°41' W 118°16'918.8
2017-Jun-19 23:00N 33°33' W 118°23'914.7
2017-Jun-19 22:25N 33°27' W 118°29'0 0.0
2017-Jun-19 21:51N 33°27' W 118°29'0 0.0
2017-Jun-19 21:24N 33°27' W 118°29'0 0.0
2017-Jun-19 21:00N 33°27' W 118°29'0 0.0
2017-Jun-19 20:30N 33°27' W 118°29'0 0.0
2017-Jun-19 19:57N 33°27' W 118°29'0 0.0
2017-Jun-19 19:30N 33°27' W 118°29'0 0.0
2017-Jun-19 18:57N 33°27' W 118°29'0 0.0
2017-Jun-19 17:42N 33°27' W 118°29'0 0.0
2017-Jun-19 17:30N 33°27' W 118°29'0 0.0
2017-Jun-19 16:26N 33°27' W 118°29'2 4.0
2017-Jun-19 16:00N 33°28' W 118°28'1115.9
2017-Jun-19 15:20N 33°36' W 118°20'515.0
2017-Jun-19 15:00N 33°41' W 118°17'  

Dump ship's entire track history